Terminal Aerodrome Forecast
Issued by NWS

Home | Current Version | Previous Version | Text Only | Print | Product List | Glossary On
Versions: 1 2 3 4 5 6 7 8 9 10 11 12 13 14 15 16 17
000
FTUS45 KBYZ 190528
TAFLVM
TAF
KLVM 190528Z 1906/2006 22032G45KT P6SM SCT200
     FM190900 24033G48KT P6SM SCT200=

USA.gov is the U.S. government's official web portal to all federal, state and local government web resources and services.